createdAt,value
2018-08-20T00:01:44.157Z,97657.48
2018-08-20T00:04:11.919Z,97656.92
2018-08-20T00:06:46.546Z,97656.13
2018-08-20T00:09:14.294Z,97657.48
2018-08-20T00:11:41.948Z,97652.41
2018-08-20T00:14:09.589Z,97657.62
2018-08-20T00:16:37.247Z,97653.00
2018-08-20T00:19:04.933Z,97657.07
2018-08-20T00:21:32.624Z,97656.48
2018-08-20T00:24:00.326Z,97650.05
2018-08-20T00:26:28.247Z,97657.07
2018-08-20T00:28:55.924Z,97656.83
2018-08-20T00:31:23.645Z,97651.20
2018-08-20T00:33:51.328Z,97658.19
2018-08-20T00:36:19.005Z,97654.70
2018-08-20T00:38:46.737Z,97660.48
2018-08-20T00:41:14.414Z,97658.53
2018-08-20T00:43:42.110Z,97650.98
2018-08-20T00:46:09.780Z,97660.69
2018-08-20T00:48:37.517Z,97662.95
2018-08-20T00:51:05.191Z,97657.53
2018-08-20T00:53:32.942Z,97659.48
2018-08-20T00:56:00.600Z,97657.33
2018-08-20T00:58:28.363Z,97652.70
2018-08-20T01:00:56.098Z,97652.11
2018-08-20T01:03:23.736Z,97654.05
2018-08-20T01:05:51.569Z,97649.73
2018-08-20T01:08:19.311Z,97652.70
2018-08-20T01:10:46.978Z,97649.73
2018-08-20T01:13:14.656Z,97652.25
2018-08-20T01:15:42.373Z,97653.60
2018-08-20T01:18:10.074Z,97663.66
2018-08-20T01:20:37.741Z,97658.23
2018-08-20T01:23:05.421Z,97659.38
2018-08-20T01:25:33.065Z,97651.23
2018-08-20T01:28:00.725Z,97653.16
2018-08-20T01:30:28.376Z,97656.66
2018-08-20T01:32:56.486Z,97651.03
2018-08-20T01:35:25.914Z,97649.67
2018-08-20T01:37:53.656Z,97659.94
2018-08-20T01:40:21.311Z,97660.53
2018-08-20T01:42:48.993Z,97661.09
2018-08-20T01:45:16.643Z,97668.42
2018-08-20T01:47:44.381Z,97664.36
2018-08-20T01:50:12.036Z,97669.78
2018-08-20T01:52:39.706Z,97668.77
2018-08-20T01:55:07.365Z,97663.94
2018-08-20T01:57:35.053Z,97668.56
2018-08-20T02:00:02.741Z,97662.58
2018-08-20T02:02:30.547Z,97667.77
2018-08-20T02:04:58.202Z,97668.01
2018-08-20T02:07:25.858Z,97664.84
2018-08-20T02:09:53.522Z,97666.20
2018-08-20T02:12:21.257Z,97668.70
2018-08-20T02:14:48.948Z,97668.12
2018-08-20T02:17:16.652Z,97665.19
2018-08-20T02:19:44.340Z,97664.64
2018-08-20T02:22:12.026Z,97660.33
2018-08-20T02:24:39.695Z,97660.56
2018-08-20T02:27:07.376Z,97656.84
2018-08-20T02:29:35.018Z,97660.33
2018-08-20T02:32:02.678Z,97662.83
2018-08-20T02:34:30.311Z,97657.41
2018-08-20T02:36:58.004Z,97665.55
2018-08-20T02:39:25.753Z,97659.31
2018-08-20T02:41:53.507Z,97655.84
2018-08-20T02:44:21.185Z,97659.11
2018-08-20T02:46:49.796Z,97657.75
2018-08-20T02:49:18.105Z,97660.26
2018-08-20T02:51:46.649Z,97661.02
2018-08-20T02:54:14.325Z,97662.97
2018-08-20T02:56:42.408Z,97662.97
2018-08-20T02:59:10.112Z,97660.81
2018-08-20T03:01:37.931Z,97653.83
2018-08-20T03:04:05.938Z,97650.88
2018-08-20T03:06:33.690Z,97654.94
2018-08-20T03:09:01.377Z,97650.88
2018-08-20T03:11:29.141Z,97659.01
2018-08-20T03:13:56.792Z,97659.01
2018-08-20T03:16:24.484Z,97658.80
2018-08-20T03:18:52.146Z,97656.30
2018-08-20T03:21:19.866Z,97661.52
2018-08-20T03:23:47.613Z,97657.45
2018-08-20T03:26:15.401Z,97657.20
2018-08-20T03:28:43.181Z,97658.45
2018-08-20T03:31:10.928Z,97651.95
2018-08-20T03:33:38.836Z,97658.97
2018-08-20T03:36:06.546Z,97659.36
2018-08-20T03:38:34.240Z,97669.69
2018-08-20T03:41:01.918Z,97665.81
2018-08-20T03:43:29.712Z,97661.09
2018-08-20T03:45:57.419Z,97667.12
2018-08-20T03:48:25.342Z,97673.26
2018-08-20T03:50:52.980Z,97671.27
2018-08-20T03:53:20.737Z,97668.47
2018-08-20T03:55:48.372Z,97673.48
2018-08-20T03:58:16.170Z,97667.74
2018-08-20T04:00:43.899Z,97671.12
2018-08-20T04:03:11.589Z,97674.75
2018-08-20T04:05:39.485Z,97674.62
2018-08-20T04:08:07.154Z,97674.34
2018-08-20T04:10:34.956Z,97670.07
2018-08-20T04:13:02.697Z,97670.98
2018-08-20T04:15:30.373Z,97668.70
2018-08-20T04:17:58.041Z,97437.05
2018-08-20T04:20:25.745Z,97669.83
2018-08-20T04:22:53.422Z,97668.83
2018-08-20T04:25:21.128Z,97661.92
2018-08-20T04:27:48.768Z,97664.28
2018-08-20T04:30:16.487Z,97669.02
2018-08-20T04:32:44.215Z,97674.97
2018-08-20T04:35:11.934Z,97686.48
2018-08-20T04:37:39.588Z,97686.72
2018-08-20T04:40:07.693Z,97682.07
2018-08-20T04:42:35.402Z,97690.09
2018-08-20T04:45:03.184Z,97692.46
2018-08-20T04:47:30.872Z,97695.94
2018-08-20T04:49:58.562Z,97697.75
2018-08-20T04:52:26.353Z,97693.91
2018-08-20T04:54:54.076Z,97692.33
2018-08-20T04:57:21.747Z,97693.00
2018-08-20T04:59:49.464Z,97691.86
2018-08-20T05:02:17.153Z,97698.87
2018-08-20T05:04:44.848Z,97696.72
2018-08-20T05:07:12.553Z,97698.87
2018-08-20T05:09:40.339Z,97693.33
2018-08-20T05:12:07.988Z,97698.54
2018-08-20T05:14:35.703Z,97701.45
2018-08-20T05:17:03.418Z,97704.38
2018-08-20T05:19:31.096Z,97704.97
2018-08-20T05:21:58.781Z,97705.18
2018-08-20T05:24:26.454Z,97695.21
2018-08-20T05:26:54.177Z,97708.30
2018-08-20T05:29:21.907Z,97711.50
2018-08-20T05:34:23.569Z,97700.92
2018-08-20T05:36:51.329Z,97707.82
2018-08-20T05:39:19.033Z,97709.02
2018-08-20T05:41:46.714Z,97712.39
2018-08-20T05:44:14.502Z,97713.22
2018-08-20T05:46:42.159Z,97714.08
2018-08-20T05:49:10.012Z,97717.59
2018-08-20T05:51:37.709Z,97716.15
2018-08-20T05:54:05.647Z,97716.75
2018-08-20T05:56:33.373Z,97720.27
2018-08-20T05:59:01.037Z,97717.02
2018-08-20T06:01:29.248Z,97727.29
2018-08-20T06:03:56.976Z,97721.17
2018-08-20T06:06:24.673Z,97727.55
2018-08-20T06:08:52.381Z,97725.97
2018-08-20T06:11:20.164Z,97725.67
2018-08-20T06:13:47.893Z,97720.44
2018-08-20T06:16:15.705Z,97731.50
2018-08-20T06:18:43.341Z,97735.22
2018-08-20T06:21:11.117Z,97731.90
2018-08-20T06:23:38.932Z,97737.51
2018-08-20T06:26:06.641Z,97737.42
2018-08-20T06:28:34.368Z,97738.39
2018-08-20T06:31:02.106Z,97738.98
2018-08-20T06:33:30.073Z,97739.86
2018-08-20T06:35:57.853Z,97740.38
2018-08-20T06:38:25.580Z,97736.13
2018-08-20T06:40:53.202Z,97736.88
2018-08-20T06:43:20.822Z,97736.44
2018-08-20T06:45:48.450Z,97741.03
2018-08-20T06:48:16.097Z,97744.30
2018-08-20T06:50:43.726Z,97739.88
2018-08-20T06:53:11.341Z,97739.48
2018-08-20T06:55:38.987Z,97739.80
2018-08-20T06:58:06.644Z,97742.86
2018-08-20T07:00:34.272Z,97737.33
2018-08-20T07:03:01.899Z,97740.40
2018-08-20T07:05:29.529Z,97743.80
2018-08-20T07:07:57.140Z,97746.96
2018-08-20T07:10:24.862Z,97745.34
2018-08-20T07:12:52.490Z,97752.02
2018-08-20T07:15:20.135Z,97745.05
2018-08-20T07:17:47.752Z,97747.63
2018-08-20T07:20:16.254Z,97749.39
2018-08-20T07:22:44.208Z,97740.94
2018-08-20T07:25:11.799Z,97743.13
2018-08-20T07:27:39.439Z,97741.05
2018-08-20T07:30:08.954Z,97737.00
2018-08-20T07:32:36.604Z,97748.97
2018-08-20T07:35:04.589Z,97744.46
2018-08-20T07:37:32.234Z,97747.05
2018-08-20T07:39:59.874Z,97747.98
2018-08-20T07:42:27.519Z,97747.31
2018-08-20T07:44:55.132Z,97742.91
2018-08-20T07:47:22.767Z,97740.64
2018-08-20T07:49:50.393Z,97744.61
2018-08-20T07:52:18.118Z,97738.28
2018-08-20T07:54:45.759Z,97740.88
2018-08-20T07:57:13.622Z,97744.04
2018-08-20T07:59:41.269Z,97750.69
2018-08-20T08:02:09.227Z,97743.83
2018-08-20T08:04:36.821Z,97745.61
2018-08-20T08:07:04.514Z,97751.28
2018-08-20T08:09:32.141Z,97748.78
2018-08-20T08:11:59.819Z,97746.54
2018-08-20T08:14:27.436Z,97738.86
2018-08-20T08:16:55.178Z,97749.92
2018-08-20T08:19:22.817Z,97744.95
2018-08-20T08:21:50.434Z,97742.48
2018-08-20T08:24:18.058Z,97740.80
2018-08-20T08:26:45.685Z,97740.45
2018-08-20T08:29:13.335Z,97736.61
2018-08-20T08:31:40.974Z,97738.42
2018-08-20T08:34:08.596Z,97736.48
2018-08-20T08:36:36.242Z,97744.27
2018-08-20T08:39:04.809Z,97737.20
2018-08-20T08:41:32.438Z,97741.47
2018-08-20T08:44:00.095Z,97739.78
2018-08-20T08:46:27.736Z,97738.89
2018-08-20T08:48:55.369Z,97731.56
2018-08-20T08:51:23.046Z,97727.94
2018-08-20T08:53:50.699Z,97731.44
2018-08-20T08:56:18.322Z,97734.02
2018-08-20T08:58:45.944Z,97722.09
2018-08-20T09:01:13.625Z,97733.93
2018-08-20T09:03:41.349Z,97728.95
2018-08-20T09:06:08.986Z,97727.84
2018-08-20T09:08:36.625Z,97731.56
2018-08-20T09:11:04.258Z,97734.48
2018-08-20T09:13:31.888Z,97731.44
2018-08-20T09:15:59.513Z,97726.82
2018-08-20T09:18:27.133Z,97730.54
2018-08-20T09:20:54.782Z,97725.13
2018-08-20T09:23:22.404Z,97725.80
2018-08-20T09:25:50.031Z,97726.56
2018-08-20T09:28:17.962Z,97731.09
2018-08-20T09:30:45.613Z,97722.16
2018-08-20T09:33:13.278Z,97724.53
2018-08-20T09:35:40.911Z,97725.55
2018-08-20T09:38:15.061Z,97721.14
2018-08-20T09:40:42.703Z,97730.06
2018-08-20T09:43:10.318Z,97728.80
2018-08-20T09:45:37.946Z,97722.83
2018-08-20T09:48:05.589Z,97721.47
2018-08-20T09:50:33.213Z,97721.13
2018-08-20T09:53:00.942Z,97714.02
2018-08-20T09:55:28.609Z,97718.30
2018-08-20T09:57:56.253Z,97711.18
2018-08-20T10:00:29.309Z,97712.20
2018-08-20T10:02:56.961Z,97706.78
2018-08-20T10:05:24.581Z,97701.60
2018-08-20T10:07:52.225Z,97704.98
2018-08-20T10:10:19.846Z,97706.34
2018-08-20T10:12:47.531Z,97697.06
2018-08-20T10:15:15.238Z,97700.23
2018-08-20T10:17:43.689Z,97696.38
2018-08-20T10:20:12.784Z,97693.12
2018-08-20T10:22:40.468Z,97696.25
2018-08-20T10:25:08.237Z,97699.20
2018-08-20T10:27:36.061Z,97694.80
2018-08-20T10:30:03.762Z,97692.86
2018-08-20T10:32:32.008Z,97687.68
2018-08-20T10:35:00.042Z,97684.04
2018-08-20T10:37:27.695Z,97688.31
2018-08-20T10:39:55.358Z,97692.63
2018-08-20T10:42:22.980Z,97689.81
2018-08-20T10:44:54.618Z,97678.98
2018-08-20T10:47:22.549Z,97682.70
2018-08-20T10:49:50.178Z,97679.44
2018-08-20T10:52:17.835Z,97683.36
2018-08-20T10:54:45.467Z,97674.68
2018-08-20T10:57:13.166Z,97689.00
2018-08-20T10:59:40.804Z,97678.95
2018-08-20T11:02:09.498Z,97685.59
2018-08-20T11:04:37.038Z,97688.77
2018-08-20T11:07:04.661Z,97680.62
2018-08-20T11:09:32.333Z,97677.58
2018-08-20T11:12:00.259Z,97681.30
2018-08-20T11:14:27.879Z,97671.02
2018-08-20T11:16:55.501Z,97672.37
2018-08-20T11:19:23.135Z,97668.55
2018-08-20T11:21:50.833Z,97674.73
2018-08-20T11:24:18.457Z,97666.05
2018-08-20T11:26:46.077Z,97668.41
2018-08-20T11:29:13.738Z,97666.16
2018-08-20T11:31:41.358Z,97665.80
2018-08-20T11:34:09.193Z,97673.35
2018-08-20T11:36:37.417Z,97668.17
2018-08-20T11:39:05.930Z,97660.25
2018-08-20T11:41:33.727Z,97661.05
2018-08-20T11:44:01.486Z,97660.70
2018-08-20T11:46:29.438Z,97651.42
2018-08-20T11:48:57.226Z,97654.34
2018-08-20T11:51:24.916Z,97653.79
2018-08-20T11:53:52.655Z,97651.50
2018-08-20T11:56:20.421Z,97647.44
2018-08-20T11:58:48.140Z,97642.46
2018-08-20T12:01:15.958Z,97643.81
2018-08-20T12:03:43.813Z,97647.54
2018-08-20T12:06:11.521Z,97634.19
2018-08-20T12:08:39.356Z,97637.70
2018-08-20T12:11:07.032Z,97627.86
2018-08-20T12:13:34.843Z,97636.55
2018-08-20T12:16:02.493Z,97632.73
2018-08-20T12:18:30.160Z,97636.10
2018-08-20T12:20:57.790Z,97633.15
2018-08-20T12:23:25.423Z,97629.53
2018-08-20T12:25:53.112Z,97625.67
2018-08-20T12:28:20.776Z,97629.63
2018-08-20T12:30:48.437Z,97630.20
2018-08-20T12:33:16.075Z,97630.64
2018-08-20T12:35:44.270Z,97627.13
2018-08-20T12:38:12.067Z,97629.50
2018-08-20T12:40:39.837Z,97621.36
2018-08-20T12:43:07.462Z,97621.81
2018-08-20T12:45:35.123Z,97616.95
2018-08-20T12:48:02.741Z,97617.95
2018-08-20T12:50:30.374Z,97618.16
2018-08-20T12:52:58.206Z,97620.31
2018-08-20T12:55:26.324Z,97623.83
2018-08-20T12:57:54.105Z,97618.61
2018-08-20T13:00:22.225Z,97612.04
2018-08-20T13:02:49.985Z,97606.86
2018-08-20T13:05:17.697Z,97611.69
2018-08-20T13:07:45.395Z,97612.28
2018-08-20T13:10:13.081Z,97601.64
2018-08-20T13:12:40.828Z,97605.36
2018-08-20T13:15:08.596Z,97600.14
2018-08-20T13:17:36.537Z,97598.79
2018-08-20T13:20:04.605Z,97593.57
2018-08-20T13:22:32.410Z,97594.37
2018-08-20T13:25:00.127Z,97592.45
2018-08-20T13:27:27.856Z,97591.86
2018-08-20T13:29:55.693Z,97577.19
2018-08-20T13:32:23.837Z,97572.52
2018-08-20T13:34:51.610Z,97560.00
2018-08-20T13:37:19.349Z,97575.51
2018-08-20T13:39:47.141Z,97558.30
2018-08-20T13:42:14.879Z,97565.66
2018-08-20T13:44:42.637Z,97563.16
2018-08-20T13:47:10.432Z,97562.81
2018-08-20T13:49:38.048Z,97555.23
2018-08-20T13:52:05.809Z,97558.39
2018-08-20T13:54:33.564Z,97554.32
2018-08-20T13:57:01.244Z,97555.33
2018-08-20T13:59:28.974Z,97548.33
2018-08-20T14:01:56.681Z,97538.84
2018-08-20T14:04:24.425Z,97536.33
2018-08-20T14:06:53.171Z,97532.82
2018-08-20T14:09:21.019Z,97534.62
2018-08-20T14:11:48.741Z,97535.98
2018-08-20T14:14:16.412Z,97533.48
2018-08-20T14:16:44.156Z,97529.41
2018-08-20T14:19:11.857Z,97533.71
2018-08-20T14:21:39.677Z,97529.64
2018-08-20T14:24:07.420Z,97531.41
2018-08-20T14:26:35.136Z,97528.70
2018-08-20T14:29:02.992Z,97521.36
2018-08-20T14:31:30.698Z,97485.72
2018-08-20T14:33:58.437Z,97519.09
2018-08-20T14:36:26.172Z,97524.28
2018-08-20T14:38:53.846Z,97522.16
2018-08-20T14:41:21.470Z,97517.73
2018-08-20T14:43:49.102Z,97510.71
2018-08-20T14:46:21.294Z,97505.73
2018-08-20T14:48:49.148Z,97514.08
2018-08-20T14:51:17.053Z,97502.45
2018-08-20T14:53:44.682Z,97501.30
2018-08-20T14:56:12.313Z,97499.95
2018-08-20T14:58:39.952Z,97510.01
2018-08-20T15:01:07.635Z,97499.39
2018-08-20T15:03:35.336Z,97498.23
2018-08-20T15:06:02.977Z,97493.37
2018-08-20T15:08:30.609Z,97492.25
2018-08-20T15:10:58.249Z,97488.74
2018-08-20T15:13:25.865Z,97497.89
2018-08-20T15:15:53.498Z,97496.53
2018-08-20T15:18:21.142Z,97486.23
2018-08-20T15:20:48.803Z,97494.02
2018-08-20T15:23:16.434Z,97489.39
2018-08-20T15:25:44.088Z,97483.97
2018-08-20T15:28:11.722Z,97478.54
2018-08-20T15:30:39.376Z,97477.18
2018-08-20T15:33:07.003Z,97472.55
2018-08-20T15:35:34.617Z,97469.25
2018-08-20T15:38:02.232Z,97474.32
2018-08-20T15:40:29.870Z,97479.75
2018-08-20T15:42:57.510Z,97482.25
2018-08-20T15:45:25.137Z,97474.88
2018-08-20T15:47:52.751Z,97482.45
2018-08-20T15:50:20.381Z,97475.67
2018-08-20T15:52:47.997Z,97478.95
2018-08-20T15:55:15.621Z,97474.32
2018-08-20T15:57:43.256Z,97474.88
2018-08-20T16:00:13.745Z,97478.75
2018-08-20T16:02:41.382Z,97474.67
2018-08-20T16:05:09.009Z,97473.52
2018-08-20T16:07:36.935Z,97465.97
2018-08-20T16:10:05.506Z,97470.81
2018-08-20T16:12:33.145Z,97468.09
2018-08-20T16:15:00.775Z,97468.69
2018-08-20T16:17:28.397Z,97471.40
2018-08-20T16:19:56.031Z,97462.91
2018-08-20T16:22:23.670Z,97462.11
2018-08-20T16:24:51.302Z,97462.67
2018-08-20T16:27:18.964Z,97466.98
2018-08-20T16:29:46.645Z,97464.62
2018-08-20T16:32:14.262Z,97463.47
2018-08-20T16:34:41.881Z,97461.31
2018-08-20T16:37:09.509Z,97463.47
2018-08-20T16:39:37.143Z,97457.83
2018-08-20T16:42:04.781Z,97457.24
2018-08-20T16:44:32.401Z,97458.39
2018-08-20T16:47:00.025Z,97454.32
2018-08-20T16:49:27.655Z,97451.61
2018-08-20T16:51:55.308Z,97464.03
2018-08-20T16:54:22.926Z,97457.83
2018-08-20T16:56:50.537Z,97461.91
2018-08-20T16:59:18.200Z,97462.61
2018-08-20T17:01:45.998Z,97459.10
2018-08-20T17:04:23.396Z,97472.55
2018-08-20T17:06:51.032Z,97460.34
2018-08-20T17:09:18.693Z,97457.63
2018-08-20T17:11:46.327Z,97465.77
2018-08-20T17:14:13.997Z,97465.53
2018-08-20T17:16:41.609Z,97461.46
2018-08-20T17:19:09.241Z,97462.05
2018-08-20T17:21:36.874Z,97469.84
2018-08-20T17:24:04.550Z,97470.95
2018-08-20T17:26:32.185Z,97463.41
2018-08-20T17:29:06.986Z,97470.19
2018-08-20T17:31:34.626Z,97472.67
2018-08-20T17:34:02.371Z,97471.55
2018-08-20T17:36:29.997Z,97474.27
2018-08-20T17:38:57.845Z,97475.38
2018-08-20T17:41:25.481Z,97474.27
2018-08-20T17:43:53.101Z,97468.84
2018-08-20T17:46:20.729Z,97472.11
2018-08-20T17:48:48.376Z,97479.45
2018-08-20T17:51:16.007Z,97487.03
2018-08-20T17:53:49.161Z,97482.76
2018-08-20T17:56:16.887Z,97487.59
2018-08-20T17:58:44.517Z,97494.37
2018-08-20T18:01:12.159Z,97487.95
2018-08-20T18:03:40.144Z,97494.17
2018-08-20T18:06:08.960Z,97493.97
2018-08-20T18:08:36.655Z,97502.31
2018-08-20T18:11:05.006Z,97500.16
2018-08-20T18:13:35.989Z,97504.23
2018-08-20T18:16:06.920Z,97506.17
2018-08-20T18:18:35.041Z,97511.02
2018-08-20T18:21:02.660Z,97512.95
2018-08-20T18:23:31.922Z,97514.88
2018-08-20T18:25:59.545Z,97518.95
2018-08-20T18:28:27.365Z,97519.50
2018-08-20T18:31:05.261Z,97518.15
2018-08-20T18:33:33.462Z,97526.88
2018-08-20T18:36:12.408Z,97529.59
2018-08-20T18:38:50.210Z,97526.88
2018-08-20T18:41:18.537Z,97529.00
2018-08-20T18:43:46.197Z,97535.78
2018-08-20T18:46:13.832Z,97530.15
2018-08-20T18:48:41.920Z,97534.22
2018-08-20T18:51:13.861Z,97540.80
2018-08-20T18:53:41.794Z,97540.34
2018-08-20T18:56:14.610Z,97544.12
2018-08-20T18:58:43.026Z,97555.47
2018-08-20T19:01:11.078Z,97556.73
2018-08-20T19:03:48.305Z,97561.47
2018-08-20T19:06:16.644Z,97563.02
2018-08-20T19:08:44.338Z,97567.57
2018-08-20T19:11:12.589Z,97576.97
2018-08-20T19:13:40.664Z,97575.82
2018-08-20T19:16:13.949Z,97575.75
2018-08-20T19:18:41.618Z,97576.48
2018-08-20T19:21:13.503Z,97575.38
2018-08-20T19:23:41.181Z,97573.67
2018-08-20T19:26:08.797Z,97573.16
2018-08-20T19:28:36.409Z,97576.14
2018-08-20T19:31:04.033Z,97575.17
2018-08-20T19:33:32.397Z,97578.58
2018-08-20T19:36:00.399Z,97574.64
2018-08-20T19:38:28.018Z,97584.75
2018-08-20T19:41:14.685Z,97586.10
2018-08-20T19:43:48.409Z,97590.08
2018-08-20T19:46:24.165Z,97591.09
2018-08-20T19:48:56.286Z,97599.67
2018-08-20T19:51:23.920Z,97599.91
2018-08-20T19:53:51.706Z,97594.98
2018-08-20T19:56:19.330Z,97597.91
2018-08-20T19:58:46.954Z,97603.34
2018-08-20T20:01:15.432Z,97598.40
2018-08-20T20:03:44.690Z,97602.59
2018-08-20T20:06:12.677Z,97599.63
2018-08-20T20:08:40.296Z,97599.22
2018-08-20T20:11:11.337Z,97606.14
2018-08-20T20:13:39.131Z,97611.88
2018-08-20T20:16:06.854Z,97608.05
2018-08-20T20:18:34.610Z,97607.45
2018-08-20T20:21:02.445Z,97613.06
2018-08-20T20:23:30.129Z,97615.45
2018-08-20T20:25:57.884Z,97609.05
2018-08-20T20:28:25.634Z,97615.15
2018-08-20T20:30:53.361Z,97618.50
2018-08-20T20:33:21.129Z,97617.23
2018-08-20T20:35:48.845Z,97619.35
2018-08-20T20:38:16.549Z,97624.05
2018-08-20T20:40:44.198Z,97623.81
2018-08-20T20:43:11.849Z,97627.53
2018-08-20T20:45:39.494Z,97636.78
2018-08-20T20:48:07.140Z,97634.97
2018-08-20T20:50:34.899Z,97637.13
2018-08-20T20:53:02.590Z,97641.40
2018-08-20T20:55:30.261Z,97642.67
2018-08-20T20:57:57.932Z,97640.73
2018-08-20T21:00:25.651Z,97646.80
2018-08-20T21:02:57.612Z,97644.78
2018-08-20T21:05:25.340Z,97650.86
2018-08-20T21:07:53.044Z,97656.27
2018-08-20T21:10:20.746Z,97658.70
2018-08-20T21:12:48.417Z,97657.69
2018-08-20T21:15:16.095Z,97665.47
2018-08-20T21:17:44.573Z,97663.91
2018-08-20T21:20:12.438Z,97668.19
2018-08-20T21:22:40.137Z,97669.11
2018-08-20T21:25:09.152Z,97669.45
2018-08-20T21:27:36.889Z,97673.95
2018-08-20T21:30:04.588Z,97677.47
2018-08-20T21:32:32.342Z,97680.62
2018-08-20T21:35:00.101Z,97675.78
2018-08-20T21:37:27.789Z,97677.95
2018-08-20T21:39:55.581Z,97677.85
2018-08-20T21:42:28.110Z,97675.95
2018-08-20T21:44:56.093Z,97683.03
2018-08-20T21:47:27.024Z,97678.75
2018-08-20T21:49:54.770Z,97680.73
2018-08-20T21:52:22.672Z,97686.53
2018-08-20T21:54:50.381Z,97684.05
2018-08-20T21:57:18.222Z,97685.73
2018-08-20T22:00:17.580Z,97687.33
2018-08-20T22:03:02.817Z,97694.31
2018-08-20T22:05:30.794Z,97693.88
2018-08-20T22:07:59.611Z,97693.30
2018-08-20T22:10:28.694Z,97695.33
2018-08-20T22:12:56.632Z,97699.85
2018-08-20T22:15:24.414Z,97698.59
2018-08-20T22:17:52.197Z,97695.55
2018-08-20T22:20:20.264Z,97696.12
2018-08-20T22:22:48.222Z,97704.00
2018-08-20T22:25:16.617Z,97695.33
2018-08-20T22:27:49.583Z,97700.19
2018-08-20T22:30:17.845Z,97698.50
2018-08-20T22:32:45.995Z,97698.71
2018-08-20T22:35:19.025Z,97699.17
2018-08-20T22:37:49.190Z,97701.31
2018-08-20T22:40:18.710Z,97697.58
2018-08-20T22:42:47.064Z,97696.09
2018-08-20T22:45:15.970Z,97703.56
2018-08-20T22:47:44.407Z,97700.52
2018-08-20T22:50:12.262Z,97707.27
2018-08-20T22:52:42.461Z,97704.79
2018-08-20T22:55:10.913Z,97705.70
2018-08-20T22:57:39.339Z,97709.33
2018-08-20T23:00:13.620Z,97709.20
2018-08-20T23:02:41.539Z,97707.28
2018-08-20T23:05:13.453Z,97709.86
2018-08-20T23:07:41.547Z,97710.19
2018-08-20T23:10:09.436Z,97706.02
2018-08-20T23:12:40.642Z,97713.23
2018-08-20T23:15:08.809Z,97709.53
2018-08-20T23:17:37.098Z,97707.65
2018-08-20T23:20:06.265Z,97712.14
2018-08-20T23:22:34.285Z,97710.78
2018-08-20T23:25:02.193Z,97712.82
2018-08-20T23:27:39.187Z,97713.31
2018-08-20T23:30:07.847Z,97715.37
2018-08-20T23:32:35.546Z,97709.97
2018-08-20T23:35:03.472Z,97715.15
2018-08-20T23:37:31.511Z,97717.04
2018-08-20T23:39:59.541Z,97721.34
2018-08-20T23:42:27.622Z,97722.50
2018-08-20T23:44:55.940Z,97723.91
2018-08-20T23:47:23.702Z,97722.53
2018-08-20T23:49:51.549Z,97730.24
2018-08-20T23:52:19.315Z,97729.20
2018-08-20T23:54:47.068Z,97732.03
2018-08-20T23:57:14.845Z,97734.66
2018-08-20T23:59:42.805Z,97731.16
